Pricedale, Pennsylvania
Current Conditions -  °F | °C
As of 12:53 AM on Sunday 26 Oct 2014 (Local Time) from KAGC Reporting Station
Clear Clear  
Wind Chill: 57°   Ceiling: Unl
Heat Index: 57°   Visibility: 10mi
Dew Point: 30°   Wind: 10mph
Humidity: 36%   Direction: 300°WNW
Pressure: 29.78"   Gusts: 20mph
Location:  40.13°N, 79.84°W
Report Text: KAGC 260453Z AUTO 30009G17KT 10SM CLR 14/M01 A2978 RMK AO2 SLP085 T01391011 401890078 TSNO
Loading
Personal Weather Stations






























Interactive Weather Map New forecast layout! Learn more

10-Day Weather Forecast

Advertisements
Track Severe Weather on mobile